Nearby METAR Reports

 

KAWO - Arlington Muni, Washington, USA
Distance from station: WSW 26mi, 42km
Updated: Wed, 23-Apr-2014 4:15am PDT
Overcast
Overcast
 Wind from SE
Wind: SE 12 mph , 19 km/h
Temperature: 45°F , 7°C
Wind Chill: 39°F , 4°C
Dew Point: 39°F , 4°C
Humidity: 81%
Barometer: 29.90 inHg , 1012.5 hPa
Clouds: Overcast
Visibility: 10 miles , 16 km
Cloud details: Overcast 1700 ft
2014/04/23 11:15 KAWO 231115Z AUTO 14010KT 10SM OVC017 07/04 A2990 RMK AO1
KPAE - Everett, Washington, USA
Distance from station: SW 39mi, 62km
Updated: Wed, 23-Apr-2014 4:21am PDT
Mostly cloudy
Mostly cloudy
 Wind from S
Wind: S 15 mph , 24 km/h, Gust: 22 mph , 35 km/h
Temperature: 43°F , 6°C
Wind Chill: 36°F , 2°C
Dew Point: 39°F , 4°C
Humidity: 87%
Barometer: 29.86 inHg , 1011.2 hPa
Clouds: Mostly cloudy
Visibility: 10 miles , 16 km
Cloud details: Mostly cloudy 900 ft
Mostly cloudy 1300 ft
2014/04/23 11:21 KPAE 231121Z AUTO 17013G19KT 10SM BKN009 BKN013 06/04 A2986 RMK AO2 CIG 008V012 T00610044 $
 
KBVS - Burlington/Mt V, Washington, USA
Distance from station: WNW 40mi, 64km
Updated: Wed, 23-Apr-2014 4:15am PDT
Overcast
Overcast
 Wind from ESE
Wind: ESE 7 mph , 11 km/h
Temperature: 45°F , 7°C
Wind Chill: 41°F , 5°C
Dew Point: 41°F , 5°C
Humidity: 87%
Barometer: 29.88 inHg , 1011.9 hPa
Clouds: Overcast
Visibility: 10 miles , 16 km
Cloud details: Overcast 1300 ft
2014/04/23 11:15 KBVS 231115Z AUTO 11006KT 10SM OVC013 07/05 A2988 RMK A01 P000
KNUW - Whidbey Is. Nas, Washington, USA
Distance from station: W 48mi, 78km
Updated: Wed, 23-Apr-2014 3:56am PDT
Overcast
Overcast
 Wind from SE
Wind: SE 10 mph , 17 km/h
Temperature: 48°F , 9°C
Wind Chill: 44°F , 7°C
Dew Point: 39°F , 4°C
Humidity: 71%
Barometer: 29.86 inHg , 1011.2 hPa
Clouds: Overcast
Visibility: 10 miles , 16 km
Cloud details: Partly cloudy 1000 ft
Mostly cloudy 2300 ft
Overcast 3500 ft
2014/04/23 10:56 KNUW 231056Z 14009KT 10SM SCT010 BKN023 OVC035 09/04 A2986 RMK AO2 SLP115 T00890044 $
 
KBLI - Bellingham, Washington, USA
Distance from station: NW 57mi, 91km
Updated: Wed, 23-Apr-2014 3:53am PDT
Overcast
Overcast
 Wind from SSE
Wind: SSE 8 mph , 13 km/h
Temperature: 46°F , 8°C
Wind Chill: 42°F , 6°C
Dew Point: 39°F , 4°C
Humidity: 76%
Barometer: 29.86 inHg , 1011.2 hPa
Clouds: Overcast
Visibility: 10 miles , 16 km
Cloud details: Overcast 1500 ft
2014/04/23 10:53 KBLI 231053Z AUTO 15007KT 10SM OVC015 08/04 A2986 RMK AO2 SLP118 T00780039
KBFI - Seattle/Boeing, Washington, USA
Distance from station: SW 58mi, 94km
Updated: Wed, 23-Apr-2014 3:53am PDT
Mostly cloudy
Mostly cloudy
 Wind from SSE
Wind: SSE 9 mph , 15 km/h
Temperature: 46°F , 8°C
Wind Chill: 41°F , 5°C
Dew Point: 39°F , 4°C
Humidity: 76%
Barometer: 29.89 inHg , 1012.2 hPa
Clouds: Mostly cloudy
Visibility: 10 miles , 16 km
Cloud details: Mostly cloudy 9500 ft
Mostly cloudy 12000 ft
2014/04/23 10:53 KBFI 231053Z 15008KT 10SM BKN095 BKN120 08/04 A2989 RMK AO2 SLP120 T00780044